createdAt,value
2018-01-08T00:00:53.068Z,0.00
2018-01-08T00:01:52.937Z,0.00
2018-01-08T00:02:52.852Z,0.00
2018-01-08T00:03:52.780Z,0.00
2018-01-08T00:04:52.690Z,0.00
2018-01-08T00:05:52.609Z,0.00
2018-01-08T00:06:52.524Z,0.00
2018-01-08T00:07:52.449Z,0.00
2018-01-08T00:08:52.366Z,0.00
2018-01-08T00:09:52.272Z,0.00
2018-01-08T00:10:52.192Z,0.00
2018-01-08T00:11:52.106Z,0.00
2018-01-08T00:12:52.022Z,0.00
2018-01-08T00:13:51.939Z,0.00
2018-01-08T00:14:51.858Z,0.00
2018-01-08T00:15:51.775Z,0.00
2018-01-08T00:16:51.689Z,0.00
2018-01-08T00:17:51.608Z,0.00
2018-01-08T00:18:51.527Z,0.00
2018-01-08T00:19:51.441Z,0.00
2018-01-08T00:20:51.360Z,0.00
2018-01-08T00:21:51.277Z,0.00
2018-01-08T00:22:51.192Z,0.00
2018-01-08T00:23:51.110Z,0.00
2018-01-08T00:24:51.027Z,0.00
2018-01-08T00:25:50.945Z,0.00
2018-01-08T00:26:50.862Z,0.00
2018-01-08T00:27:50.782Z,0.00
2018-01-08T00:28:50.698Z,0.00
2018-01-08T00:29:50.613Z,0.00
2018-01-08T00:30:50.532Z,0.00
2018-01-08T00:31:50.447Z,0.00
2018-01-08T00:32:50.365Z,0.00
2018-01-08T00:33:50.281Z,0.00
2018-01-08T00:34:50.202Z,0.00
2018-01-08T00:35:50.118Z,0.00
2018-01-08T00:36:50.033Z,0.00
2018-01-08T00:37:49.951Z,0.00
2018-01-08T00:38:49.869Z,0.00
2018-01-08T00:39:49.785Z,0.00
2018-01-08T00:40:49.700Z,0.00
2018-01-08T00:41:49.621Z,0.00
2018-01-08T00:42:49.585Z,0.00
2018-01-08T00:43:49.454Z,0.00
2018-01-08T00:44:49.372Z,0.00
2018-01-08T00:45:49.288Z,0.00
2018-01-08T00:46:49.205Z,0.00
2018-01-08T00:47:49.123Z,0.00
2018-01-08T00:48:49.041Z,0.00
2018-01-08T00:49:48.957Z,0.00
2018-01-08T00:50:48.875Z,0.00
2018-01-08T00:51:48.791Z,0.00
2018-01-08T00:52:48.707Z,0.00
2018-01-08T00:53:48.626Z,0.00
2018-01-08T00:54:48.542Z,0.00
2018-01-08T00:55:48.461Z,0.00
2018-01-08T00:56:48.406Z,0.00
2018-01-08T00:57:48.292Z,0.00
2018-01-08T00:58:48.211Z,0.00
2018-01-08T00:59:48.128Z,0.00
2018-01-08T01:00:48.044Z,0.00
2018-01-08T01:01:47.959Z,0.00
2018-01-08T01:02:47.881Z,0.00
2018-01-08T01:03:47.796Z,0.00
2018-01-08T01:04:47.714Z,0.00
2018-01-08T01:05:47.633Z,0.00
2018-01-08T01:06:47.548Z,0.00
2018-01-08T01:07:47.464Z,0.00
2018-01-08T01:08:47.381Z,0.00
2018-01-08T01:09:47.298Z,0.00
2018-01-08T01:10:47.215Z,0.00
2018-01-08T01:11:47.131Z,0.00
2018-01-08T01:12:47.049Z,0.00
2018-01-08T01:13:46.966Z,0.00
2018-01-08T01:14:46.883Z,0.00
2018-01-08T01:15:46.800Z,0.00
2018-01-08T01:16:46.720Z,0.00
2018-01-08T01:17:46.635Z,0.00
2018-01-08T01:18:46.553Z,0.00
2018-01-08T01:19:46.468Z,0.00
2018-01-08T01:20:46.397Z,0.00
2018-01-08T01:21:46.301Z,0.00
2018-01-08T01:22:46.218Z,0.00
2018-01-08T01:23:46.135Z,0.00
2018-01-08T01:24:46.052Z,0.00
2018-01-08T01:25:45.970Z,0.00
2018-01-08T01:26:45.900Z,0.00
2018-01-08T01:27:45.803Z,0.00
2018-01-08T01:28:45.719Z,0.00
2018-01-08T01:29:45.636Z,0.00
2018-01-08T01:30:45.554Z,0.00
2018-01-08T01:31:45.471Z,0.00
2018-01-08T01:32:45.387Z,0.00
2018-01-08T01:33:45.305Z,0.00
2018-01-08T01:34:45.225Z,0.00
2018-01-08T01:35:45.142Z,0.00
2018-01-08T01:36:45.056Z,0.00
2018-01-08T01:37:44.971Z,0.00
2018-01-08T01:38:44.889Z,0.00
2018-01-08T01:39:44.805Z,0.00
2018-01-08T01:40:44.723Z,0.00
2018-01-08T01:41:44.642Z,0.00
2018-01-08T01:42:44.557Z,0.00
2018-01-08T01:43:44.476Z,0.00
2018-01-08T01:44:44.391Z,0.00
2018-01-08T01:45:44.311Z,0.00
2018-01-08T01:46:44.225Z,0.00
2018-01-08T01:47:44.143Z,0.00
2018-01-08T01:48:44.058Z,0.00
2018-01-08T01:49:43.977Z,0.00
2018-01-08T01:50:43.894Z,0.00
2018-01-08T01:51:43.810Z,0.00
2018-01-08T01:52:43.727Z,0.00
2018-01-08T01:53:43.648Z,0.00
2018-01-08T01:54:43.562Z,0.00
2018-01-08T01:55:43.484Z,0.00
2018-01-08T01:56:43.393Z,0.00
2018-01-08T01:57:43.312Z,0.00
2018-01-08T01:58:43.228Z,0.00
2018-01-08T01:59:43.145Z,0.00
2018-01-08T02:00:43.064Z,0.00
2018-01-08T02:01:42.979Z,0.00
2018-01-08T02:02:42.896Z,0.00
2018-01-08T02:03:42.814Z,0.00
2018-01-08T02:04:42.732Z,0.00
2018-01-08T02:05:42.646Z,0.00
2018-01-08T02:06:42.564Z,0.00
2018-01-08T02:07:42.482Z,0.00
2018-01-08T02:08:42.398Z,0.00
2018-01-08T02:09:42.315Z,0.00
2018-01-08T02:10:42.238Z,0.00
2018-01-08T02:11:42.150Z,0.00
2018-01-08T02:12:42.066Z,0.00
2018-01-08T02:13:41.984Z,0.00
2018-01-08T02:14:41.900Z,0.00
2018-01-08T02:15:41.818Z,0.00
2018-01-08T02:16:41.732Z,0.00
2018-01-08T02:17:41.653Z,0.00
2018-01-08T02:18:41.570Z,0.00
2018-01-08T02:19:41.485Z,0.00
2018-01-08T02:20:41.403Z,0.00
2018-01-08T02:21:41.318Z,0.00
2018-01-08T02:22:41.234Z,0.00
2018-01-08T02:23:41.151Z,0.00
2018-01-08T02:24:41.079Z,0.00
2018-01-08T02:25:40.987Z,0.00
2018-01-08T02:26:40.903Z,0.00
2018-01-08T02:27:40.822Z,0.00
2018-01-08T02:28:40.739Z,0.00
2018-01-08T02:29:40.653Z,0.00
2018-01-08T02:30:40.572Z,0.00
2018-01-08T02:31:40.490Z,0.00
2018-01-08T02:32:40.404Z,0.00
2018-01-08T02:33:40.318Z,0.00
2018-01-08T02:34:40.239Z,0.00
2018-01-08T02:35:40.157Z,0.00
2018-01-08T02:36:40.074Z,0.00
2018-01-08T02:37:39.990Z,0.00
2018-01-08T02:38:39.905Z,0.00
2018-01-08T02:39:39.820Z,0.00
2018-01-08T02:40:39.739Z,0.00
2018-01-08T02:41:39.655Z,0.00
2018-01-08T02:42:39.570Z,0.00
2018-01-08T02:43:39.491Z,0.00
2018-01-08T02:44:39.405Z,0.00
2018-01-08T02:45:39.322Z,0.00
2018-01-08T02:46:39.241Z,0.00
2018-01-08T02:47:39.156Z,0.00
2018-01-08T02:48:39.070Z,0.00
2018-01-08T02:49:38.988Z,0.00
2018-01-08T02:50:38.909Z,0.00
2018-01-08T02:51:38.822Z,0.00
2018-01-08T02:52:38.739Z,0.00
2018-01-08T02:53:38.655Z,0.00
2018-01-08T02:54:38.577Z,0.00
2018-01-08T02:55:38.490Z,0.00
2018-01-08T02:56:38.406Z,0.00
2018-01-08T02:57:38.335Z,0.00
2018-01-08T02:58:38.241Z,0.00
2018-01-08T02:59:38.156Z,0.00
2018-01-08T03:00:38.072Z,0.00
2018-01-08T03:01:37.991Z,0.00
2018-01-08T03:02:37.912Z,0.00
2018-01-08T03:03:37.822Z,0.00
2018-01-08T03:04:37.738Z,0.00
2018-01-08T03:05:37.658Z,0.00
2018-01-08T03:06:37.571Z,0.00
2018-01-08T03:07:37.490Z,0.00
2018-01-08T03:08:37.406Z,0.00
2018-01-08T03:09:37.321Z,0.00
2018-01-08T03:10:37.241Z,0.00
2018-01-08T03:11:37.158Z,0.00
2018-01-08T03:12:37.077Z,0.00
2018-01-08T03:13:36.989Z,0.00
2018-01-08T03:14:36.908Z,0.00
2018-01-08T03:15:36.825Z,0.00
2018-01-08T03:16:44.365Z,0.00
2018-01-08T03:18:30.023Z,0.00
2018-01-08T03:19:29.891Z,0.00
2018-01-08T03:21:23.172Z,0.00
2018-01-08T03:22:23.040Z,0.00
2018-01-08T03:24:16.308Z,0.00
2018-01-08T03:25:16.220Z,0.00
2018-01-08T03:27:10.502Z,0.00
2018-01-08T03:28:10.370Z,0.00
2018-01-08T03:29:10.284Z,0.00
2018-01-08T03:30:10.202Z,0.00
2018-01-08T03:31:10.120Z,0.00
2018-01-08T03:32:10.035Z,0.00
2018-01-08T03:33:09.950Z,0.00
2018-01-08T03:34:09.870Z,0.00
2018-01-08T03:35:09.786Z,0.00
2018-01-08T03:36:09.704Z,0.00
2018-01-08T03:37:09.618Z,0.00
2018-01-08T03:38:09.534Z,0.00
2018-01-08T03:39:09.452Z,0.00
2018-01-08T03:40:09.369Z,0.00
2018-01-08T03:41:09.284Z,0.00
2018-01-08T03:42:09.202Z,0.00
2018-01-08T03:43:09.118Z,0.00
2018-01-08T03:44:09.037Z,0.00
2018-01-08T03:45:08.956Z,0.00
2018-01-08T03:46:08.868Z,0.00
2018-01-08T03:47:08.784Z,0.00
2018-01-08T03:48:08.702Z,0.00
2018-01-08T03:49:08.618Z,0.00
2018-01-08T03:50:08.535Z,0.00
2018-01-08T03:51:08.453Z,0.00
2018-01-08T03:52:08.369Z,0.00
2018-01-08T03:53:08.286Z,0.00
2018-01-08T03:54:08.201Z,0.00
2018-01-08T03:55:08.118Z,0.00
2018-01-08T03:56:08.036Z,0.00
2018-01-08T03:57:07.950Z,0.00
2018-01-08T03:58:07.869Z,0.00
2018-01-08T03:59:07.785Z,0.00
2018-01-08T04:00:07.702Z,0.00
2018-01-08T04:01:07.617Z,0.00
2018-01-08T04:02:07.535Z,0.00
2018-01-08T04:03:07.451Z,0.00
2018-01-08T04:04:07.370Z,0.00
2018-01-08T04:05:07.285Z,0.00
2018-01-08T04:06:07.203Z,0.00
2018-01-08T04:07:07.119Z,0.00
2018-01-08T04:08:07.036Z,0.00
2018-01-08T04:09:06.953Z,0.00
2018-01-08T04:10:06.868Z,0.00
2018-01-08T04:11:06.787Z,0.00
2018-01-08T04:12:06.702Z,0.00
2018-01-08T04:13:06.618Z,0.00
2018-01-08T04:14:06.536Z,0.00
2018-01-08T04:15:06.455Z,0.00
2018-01-08T04:16:06.370Z,0.00
2018-01-08T04:17:06.284Z,0.00
2018-01-08T04:18:06.203Z,0.00
2018-01-08T04:19:06.120Z,0.00
2018-01-08T04:20:06.036Z,0.00
2018-01-08T04:21:05.986Z,0.00
2018-01-08T04:22:05.869Z,0.00
2018-01-08T04:23:05.786Z,0.00
2018-01-08T04:24:05.702Z,0.00
2018-01-08T04:25:05.624Z,0.00
2018-01-08T04:26:05.536Z,0.00
2018-01-08T04:27:05.453Z,0.00
2018-01-08T04:28:05.371Z,0.00
2018-01-08T04:29:05.287Z,0.00
2018-01-08T04:30:05.202Z,0.00
2018-01-08T04:31:05.121Z,0.00
2018-01-08T04:32:05.043Z,0.00
2018-01-08T04:33:04.954Z,0.00
2018-01-08T04:34:04.883Z,0.00
2018-01-08T04:35:04.789Z,0.00
2018-01-08T04:36:04.705Z,0.00
2018-01-08T04:37:04.622Z,0.00
2018-01-08T04:38:04.537Z,0.00
2018-01-08T04:39:04.455Z,0.00
2018-01-08T04:40:04.374Z,0.00
2018-01-08T04:41:04.287Z,0.00
2018-01-08T04:42:04.204Z,0.00
2018-01-08T04:43:04.122Z,0.00
2018-01-08T04:44:04.039Z,0.00
2018-01-08T04:45:03.955Z,0.00
2018-01-08T04:46:03.873Z,0.00
2018-01-08T04:47:03.791Z,0.00
2018-01-08T04:48:03.710Z,0.00
2018-01-08T04:49:03.623Z,0.00
2018-01-08T04:50:03.538Z,0.00
2018-01-08T04:51:03.458Z,0.00
2018-01-08T04:52:03.375Z,0.00
2018-01-08T04:53:03.290Z,0.00
2018-01-08T04:54:03.206Z,0.00
2018-01-08T04:55:03.125Z,0.00
2018-01-08T04:56:03.042Z,0.00
2018-01-08T04:57:02.956Z,0.00
2018-01-08T04:58:02.874Z,0.00
2018-01-08T04:59:02.794Z,0.00
2018-01-08T05:00:02.707Z,0.00
2018-01-08T05:01:02.626Z,0.00
2018-01-08T05:02:02.541Z,0.00
2018-01-08T05:03:02.460Z,0.00
2018-01-08T05:04:02.380Z,0.00
2018-01-08T05:05:02.291Z,0.00
2018-01-08T05:06:02.210Z,0.00
2018-01-08T05:07:02.127Z,0.00
2018-01-08T05:08:02.043Z,0.00
2018-01-08T05:09:01.960Z,0.00
2018-01-08T05:10:01.876Z,0.00
2018-01-08T05:11:01.794Z,0.00
2018-01-08T05:12:01.723Z,0.00
2018-01-08T05:13:01.626Z,0.00
2018-01-08T05:14:01.545Z,0.00
2018-01-08T05:15:01.461Z,0.00
2018-01-08T05:16:01.379Z,0.00
2018-01-08T05:17:01.297Z,0.00
2018-01-08T05:18:01.212Z,0.00
2018-01-08T05:19:01.130Z,0.00
2018-01-08T05:20:01.046Z,0.00
2018-01-08T05:21:00.962Z,0.00
2018-01-08T05:22:00.880Z,0.00
2018-01-08T05:23:00.841Z,0.00
2018-01-08T05:24:00.714Z,0.00
2018-01-08T05:25:00.628Z,0.00
2018-01-08T05:26:00.550Z,0.00
2018-01-08T05:27:00.464Z,0.00
2018-01-08T05:28:00.381Z,0.00
2018-01-08T05:29:00.297Z,0.00
2018-01-08T05:30:00.223Z,0.00
2018-01-08T05:31:00.132Z,0.00
2018-01-08T05:32:00.048Z,0.00
2018-01-08T05:32:59.966Z,0.00
2018-01-08T05:33:59.882Z,0.00
2018-01-08T05:34:59.799Z,0.00
2018-01-08T05:35:59.716Z,0.00
2018-01-08T05:36:59.634Z,0.00
2018-01-08T05:37:59.548Z,0.00
2018-01-08T05:38:59.466Z,0.00
2018-01-08T05:39:59.383Z,0.00
2018-01-08T05:40:59.299Z,0.00
2018-01-08T05:41:59.216Z,0.00
2018-01-08T05:42:59.134Z,0.00
2018-01-08T05:43:59.052Z,0.00
2018-01-08T05:44:58.967Z,0.00
2018-01-08T05:45:58.884Z,0.00
2018-01-08T05:46:58.800Z,0.00
2018-01-08T05:47:58.718Z,0.00
2018-01-08T05:48:58.635Z,0.00
2018-01-08T05:49:58.551Z,0.00
2018-01-08T05:50:58.468Z,0.00
2018-01-08T05:51:58.386Z,0.00
2018-01-08T05:52:58.304Z,0.00
2018-01-08T05:53:58.219Z,0.00
2018-01-08T05:54:58.136Z,0.00
2018-01-08T05:55:58.054Z,0.00
2018-01-08T05:56:57.969Z,0.00
2018-01-08T05:57:57.891Z,0.00
2018-01-08T05:58:57.805Z,0.00
2018-01-08T05:59:57.722Z,0.00
2018-01-08T06:00:57.639Z,0.00
2018-01-08T06:01:57.555Z,0.00
2018-01-08T06:02:57.472Z,0.00
2018-01-08T06:03:57.389Z,0.00
2018-01-08T06:04:57.313Z,0.00
2018-01-08T06:05:57.222Z,0.00
2018-01-08T06:06:57.138Z,0.00
2018-01-08T06:07:57.056Z,0.00
2018-01-08T06:08:56.972Z,0.00
2018-01-08T06:09:56.891Z,0.00
2018-01-08T06:10:56.806Z,0.00
2018-01-08T06:11:56.729Z,0.00
2018-01-08T06:12:56.640Z,0.00
2018-01-08T06:13:56.559Z,0.00
2018-01-08T06:14:56.474Z,0.00
2018-01-08T06:15:56.394Z,0.00
2018-01-08T06:16:56.307Z,0.00
2018-01-08T06:17:56.225Z,0.00
2018-01-08T06:18:56.142Z,0.00
2018-01-08T06:19:56.061Z,0.00
2018-01-08T06:20:55.976Z,0.00
2018-01-08T06:21:55.892Z,0.00
2018-01-08T06:22:55.809Z,0.00
2018-01-08T06:23:55.726Z,0.00
2018-01-08T06:24:55.643Z,0.00
2018-01-08T06:25:55.558Z,0.00
2018-01-08T06:26:55.477Z,0.00
2018-01-08T06:27:55.395Z,0.00
2018-01-08T06:28:55.310Z,0.00
2018-01-08T06:29:55.228Z,0.00
2018-01-08T06:30:55.145Z,0.00
2018-01-08T06:31:55.062Z,0.00
2018-01-08T06:32:54.979Z,0.00
2018-01-08T06:33:54.895Z,0.00
2018-01-08T06:34:54.812Z,0.00
2018-01-08T06:35:54.729Z,0.00
2018-01-08T06:36:54.644Z,0.00
2018-01-08T06:37:54.563Z,0.00
2018-01-08T06:38:54.499Z,0.00
2018-01-08T06:39:54.398Z,0.00
2018-01-08T06:40:54.314Z,4.00
2018-01-08T06:41:54.230Z,4.00
2018-01-08T06:42:54.149Z,4.00
2018-01-08T06:43:54.064Z,0.00
2018-01-08T06:44:53.980Z,0.00
2018-01-08T06:45:53.898Z,4.00
2018-01-08T06:46:53.861Z,4.00
2018-01-08T06:47:53.733Z,4.00
2018-01-08T06:48:53.650Z,4.00
2018-01-08T06:49:53.570Z,8.00
2018-01-08T06:50:53.482Z,8.00
2018-01-08T06:51:53.401Z,8.00
2018-01-08T06:52:53.316Z,12.00
2018-01-08T06:53:53.234Z,8.00
2018-01-08T06:54:53.151Z,12.00
2018-01-08T06:55:53.068Z,12.00
2018-01-08T06:56:52.985Z,12.00
2018-01-08T06:57:52.902Z,12.00
2018-01-08T06:58:52.818Z,16.00
2018-01-08T06:59:52.739Z,16.00
2018-01-08T07:00:52.652Z,16.00
2018-01-08T07:01:52.573Z,20.00
2018-01-08T07:02:52.487Z,20.00
2018-01-08T07:03:52.406Z,24.00
2018-01-08T07:04:52.322Z,24.00
2018-01-08T07:05:52.238Z,28.00
2018-01-08T07:06:52.155Z,32.00
2018-01-08T07:07:52.071Z,36.00
2018-01-08T07:08:51.991Z,40.00
2018-01-08T07:09:51.905Z,40.00
2018-01-08T07:10:51.822Z,48.00
2018-01-08T07:11:51.739Z,48.00
2018-01-08T07:12:51.656Z,48.00
2018-01-08T07:13:51.575Z,52.00
2018-01-08T07:14:51.490Z,56.00
2018-01-08T07:15:51.408Z,60.00
2018-01-08T07:16:51.325Z,64.00
2018-01-08T07:17:51.241Z,64.00
2018-01-08T07:18:51.158Z,68.00
2018-01-08T07:19:51.076Z,72.00
2018-01-08T07:20:50.992Z,80.00
2018-01-08T07:21:50.910Z,84.00
2018-01-08T07:22:50.826Z,88.00
2018-01-08T07:23:58.378Z,92.00
2018-01-08T07:25:44.026Z,104.00
2018-01-08T07:26:43.914Z,112.00
2018-01-08T07:28:38.130Z,124.00
2018-01-08T07:29:38.045Z,128.00
2018-01-08T07:30:37.986Z,132.00
2018-01-08T07:31:37.881Z,140.00
2018-01-08T07:32:37.794Z,148.00
2018-01-08T07:33:37.716Z,156.00
2018-01-08T07:34:37.628Z,164.00
2018-01-08T07:35:37.546Z,176.00
2018-01-08T07:36:37.462Z,188.00
2018-01-08T07:37:37.384Z,208.00
2018-01-08T07:38:37.296Z,224.00
2018-01-08T07:39:37.212Z,240.00
2018-01-08T07:40:37.131Z,260.00
2018-01-08T07:41:37.052Z,268.00
2018-01-08T07:42:37.032Z,284.00
2018-01-08T07:43:36.883Z,292.00
2018-01-08T07:44:36.802Z,296.00
2018-01-08T07:45:36.717Z,312.00
2018-01-08T07:46:36.636Z,328.00
2018-01-08T07:47:36.549Z,352.00
2018-01-08T07:48:36.467Z,380.00
2018-01-08T07:49:36.383Z,400.00
2018-01-08T07:50:36.303Z,416.00
2018-01-08T07:51:36.218Z,436.00
2018-01-08T07:52:36.138Z,448.00
2018-01-08T07:53:36.054Z,460.00
2018-01-08T07:54:35.999Z,468.00
2018-01-08T07:55:35.886Z,480.00
2018-01-08T07:56:35.813Z,492.00
2018-01-08T07:57:35.722Z,504.00
2018-01-08T07:58:35.637Z,516.00
2018-01-08T07:59:35.553Z,528.00
2018-01-08T08:00:35.472Z,540.00
2018-01-08T08:01:35.392Z,552.00
2018-01-08T08:02:35.304Z,564.00
2018-01-08T08:03:35.223Z,576.00
2018-01-08T08:04:35.143Z,592.00
2018-01-08T08:05:35.060Z,604.00
2018-01-08T08:06:34.973Z,612.00
2018-01-08T08:07:34.890Z,624.00
2018-01-08T08:08:34.812Z,636.00
2018-01-08T08:09:34.724Z,648.00
2018-01-08T08:10:34.643Z,660.00
2018-01-08T08:11:34.560Z,672.00
2018-01-08T08:12:34.477Z,684.00
2018-01-08T08:13:34.397Z,696.00
2018-01-08T08:14:34.311Z,712.00
2018-01-08T08:15:34.228Z,728.00
2018-01-08T08:16:34.156Z,748.00
2018-01-08T08:17:34.063Z,764.00
2018-01-08T08:18:33.979Z,780.00
2018-01-08T08:19:33.898Z,792.00
2018-01-08T08:20:33.814Z,804.00
2018-01-08T08:21:33.733Z,812.00
2018-01-08T08:22:34.484Z,828.00
2018-01-08T08:23:33.565Z,848.00
2018-01-08T08:24:33.483Z,864.00
2018-01-08T08:25:33.445Z,880.00
2018-01-08T08:26:33.324Z,892.00
2018-01-08T08:27:33.235Z,908.00
2018-01-08T08:28:33.151Z,924.00
2018-01-08T08:29:33.070Z,944.00
2018-01-08T08:30:32.986Z,956.00
2018-01-08T08:31:32.910Z,964.00
2018-01-08T08:32:32.821Z,964.00
2018-01-08T08:33:32.738Z,968.00
2018-01-08T08:34:32.657Z,964.00
2018-01-08T08:35:32.573Z,968.00
2018-01-08T08:36:32.495Z,972.00
2018-01-08T08:37:32.408Z,976.00
2018-01-08T08:38:32.326Z,984.00
2018-01-08T08:39:32.243Z,984.00
2018-01-08T08:40:32.173Z,984.00
2018-01-08T08:41:32.081Z,992.00
2018-01-08T08:42:31.995Z,996.00
2018-01-08T08:43:31.911Z,1000.00
2018-01-08T08:44:31.869Z,1004.00
2018-01-08T08:45:31.747Z,1000.00
2018-01-08T08:46:31.663Z,996.00
2018-01-08T08:47:31.583Z,996.00
2018-01-08T08:48:31.500Z,992.00
2018-01-08T08:49:31.416Z,992.00
2018-01-08T08:50:31.335Z,996.00
2018-01-08T08:51:31.252Z,996.00
2018-01-08T08:52:31.168Z,1000.00
2018-01-08T08:53:31.094Z,996.00
2018-01-08T08:54:31.003Z,992.00
2018-01-08T08:55:30.922Z,988.00
2018-01-08T08:56:30.839Z,984.00
2018-01-08T08:57:30.757Z,984.00
2018-01-08T08:58:30.677Z,980.00
2018-01-08T08:59:30.593Z,980.00
2018-01-08T09:00:30.509Z,980.00
2018-01-08T09:01:30.426Z,980.00
2018-01-08T09:02:30.345Z,988.00
2018-01-08T09:03:30.264Z,1000.00
2018-01-08T09:04:30.180Z,1008.00
2018-01-08T09:05:30.105Z,1016.00
2018-01-08T09:06:30.014Z,1024.00
2018-01-08T09:07:29.931Z,1036.00
2018-01-08T09:08:29.850Z,1052.00
2018-01-08T09:09:29.769Z,1068.00
2018-01-08T09:10:29.696Z,1092.00
2018-01-08T09:11:29.603Z,1112.00
2018-01-08T09:12:29.520Z,1136.00
2018-01-08T09:13:29.452Z,1164.00
2018-01-08T09:14:29.390Z,1196.00
2018-01-08T09:15:29.313Z,1224.00
2018-01-08T09:16:29.229Z,1260.00
2018-01-08T09:17:29.156Z,1284.00
2018-01-08T09:18:29.026Z,1304.00
2018-01-08T09:19:28.942Z,1316.00
2018-01-08T09:20:28.859Z,1320.00
2018-01-08T09:21:28.778Z,1316.00
2018-01-08T09:22:28.694Z,1320.00
2018-01-08T09:23:28.613Z,1316.00
2018-01-08T09:24:28.530Z,1312.00
2018-01-08T09:25:28.449Z,1308.00
2018-01-08T09:26:28.368Z,1304.00
2018-01-08T09:27:28.283Z,1308.00
2018-01-08T09:28:28.202Z,1316.00
2018-01-08T09:29:28.121Z,1336.00
2018-01-08T09:30:28.036Z,1348.00
2018-01-08T09:31:27.954Z,1348.00
2018-01-08T09:32:27.871Z,1340.00
2018-01-08T09:33:27.789Z,1328.00
2018-01-08T09:34:27.707Z,1304.00
2018-01-08T09:35:27.625Z,1276.00
2018-01-08T09:36:27.542Z,1264.00
2018-01-08T09:37:27.459Z,1248.00
2018-01-08T09:38:27.377Z,1236.00
2018-01-08T09:39:27.299Z,1236.00
2018-01-08T09:40:27.212Z,1240.00
2018-01-08T09:41:27.132Z,1244.00
2018-01-08T09:42:27.049Z,1252.00
2018-01-08T09:43:26.972Z,1264.00
2018-01-08T09:44:26.884Z,1276.00
2018-01-08T09:45:26.801Z,1284.00
2018-01-08T09:46:26.719Z,1308.00
2018-01-08T09:47:26.636Z,1332.00
2018-01-08T09:48:26.555Z,1360.00
2018-01-08T09:49:26.499Z,1388.00
2018-01-08T09:50:26.396Z,1420.00
2018-01-08T09:51:26.312Z,1452.00
2018-01-08T09:52:26.226Z,1480.00
2018-01-08T09:53:26.143Z,1484.00
2018-01-08T09:54:26.110Z,1492.00
2018-01-08T09:55:25.980Z,1524.00
2018-01-08T09:56:25.898Z,1544.00
2018-01-08T09:57:25.815Z,1556.00
2018-01-08T09:58:25.733Z,1564.00
2018-01-08T09:59:25.650Z,1556.00
2018-01-08T10:00:25.569Z,1540.00
2018-01-08T10:01:25.489Z,1540.00
2018-01-08T10:02:25.402Z,1516.00
2018-01-08T10:03:25.322Z,1516.00
2018-01-08T10:04:25.240Z,1504.00
2018-01-08T10:05:25.158Z,1496.00
2018-01-08T10:06:25.075Z,1488.00
2018-01-08T10:07:24.993Z,1488.00
2018-01-08T10:08:24.910Z,1484.00
2018-01-08T10:09:24.827Z,1476.00
2018-01-08T10:10:24.746Z,1448.00
2018-01-08T10:11:24.664Z,1456.00
2018-01-08T10:12:24.582Z,1480.00
2018-01-08T10:13:24.499Z,1520.00
2018-01-08T10:14:24.417Z,1548.00
2018-01-08T10:15:24.336Z,1576.00
2018-01-08T10:16:24.253Z,1604.00
2018-01-08T10:17:24.185Z,1628.00
2018-01-08T10:18:24.087Z,1672.00
2018-01-08T10:19:24.007Z,1724.00
2018-01-08T10:20:23.924Z,1772.00
2018-01-08T10:21:23.843Z,1824.00
2018-01-08T10:22:23.761Z,1856.00
2018-01-08T10:23:23.678Z,1908.00
2018-01-08T10:24:23.595Z,1976.00
2018-01-08T10:25:23.516Z,2032.00
2018-01-08T10:26:23.432Z,2064.00
2018-01-08T10:27:23.349Z,2088.00
2018-01-08T10:28:23.272Z,2108.00
2018-01-08T10:29:23.185Z,2180.00
2018-01-08T10:30:23.102Z,2208.00
2018-01-08T10:31:23.021Z,2188.00
2018-01-08T10:32:22.939Z,2196.00
2018-01-08T10:33:22.859Z,2148.00
2018-01-08T10:34:22.773Z,2168.00
2018-01-08T10:35:22.692Z,2120.00
2018-01-08T10:36:22.610Z,2024.00
2018-01-08T10:37:22.537Z,1940.00
2018-01-08T10:38:22.446Z,1932.00
2018-01-08T10:39:22.364Z,1836.00
2018-01-08T10:40:22.309Z,1800.00
2018-01-08T10:41:22.202Z,1820.00
2018-01-08T10:42:22.117Z,1832.00
2018-01-08T10:43:22.034Z,1864.00
2018-01-08T10:44:21.955Z,1920.00
2018-01-08T10:45:21.871Z,2000.00
2018-01-08T10:46:21.789Z,2080.00
2018-01-08T10:47:21.709Z,2096.00
2018-01-08T10:48:21.624Z,2156.00
2018-01-08T10:49:21.543Z,2104.00
2018-01-08T10:50:21.461Z,2216.00
2018-01-08T10:51:21.379Z,2340.00
2018-01-08T10:52:21.303Z,2516.00
2018-01-08T10:53:21.216Z,2984.00
2018-01-08T10:54:21.132Z,3132.00
2018-01-08T10:55:21.052Z,2956.00
2018-01-08T10:56:20.970Z,3068.00
2018-01-08T10:57:20.888Z,3528.00
2018-01-08T10:58:20.804Z,3592.00
2018-01-08T10:59:20.722Z,2952.00
2018-01-08T11:00:20.641Z,3372.00
2018-01-08T11:01:20.560Z,3448.00
2018-01-08T11:02:20.477Z,3536.00
2018-01-08T11:03:20.398Z,3636.00
2018-01-08T11:04:20.314Z,3612.00
2018-01-08T11:05:20.234Z,3756.00
2018-01-08T11:06:20.156Z,4124.00
2018-01-08T11:07:20.070Z,4768.00
2018-01-08T11:08:19.988Z,5120.00
2018-01-08T11:09:19.906Z,5816.00
2018-01-08T11:10:19.825Z,6252.00
2018-01-08T11:11:19.748Z,7196.00
2018-01-08T11:12:19.662Z,6748.00
2018-01-08T11:13:19.580Z,6192.00
2018-01-08T11:14:19.499Z,5536.00
2018-01-08T11:15:19.417Z,5516.00
2018-01-08T11:16:19.336Z,6000.00
2018-01-08T11:17:19.255Z,5132.00
2018-01-08T11:18:19.173Z,5196.00
2018-01-08T11:19:19.091Z,5564.00
2018-01-08T11:20:19.011Z,5268.00
2018-01-08T11:21:18.933Z,4540.00
2018-01-08T11:22:18.854Z,3932.00
2018-01-08T11:23:18.767Z,3928.00
2018-01-08T11:24:18.687Z,4244.00
2018-01-08T11:25:18.606Z,4168.00
2018-01-08T11:26:18.525Z,4440.00
2018-01-08T11:27:18.444Z,5204.00
2018-01-08T11:28:18.362Z,8604.00
2018-01-08T11:29:18.286Z,6492.00
2018-01-08T11:30:18.202Z,9396.00
2018-01-08T11:31:18.120Z,8328.00
2018-01-08T11:32:18.042Z,6364.00
2018-01-08T11:33:17.961Z,6008.00
2018-01-08T11:34:17.879Z,7296.00
2018-01-08T11:35:17.798Z,7420.00
2018-01-08T11:36:17.717Z,9560.00
2018-01-08T11:37:17.637Z,9052.00
2018-01-08T11:38:17.555Z,6952.00
2018-01-08T11:39:17.474Z,6108.00
2018-01-08T11:40:17.394Z,6292.00
2018-01-08T11:41:17.314Z,5856.00
2018-01-08T11:42:17.235Z,6016.00
2018-01-08T11:43:17.200Z,6884.00
2018-01-08T11:44:17.074Z,8444.00
2018-01-08T11:45:16.993Z,7900.00
2018-01-08T11:46:16.912Z,7012.00
2018-01-08T11:47:16.881Z,7928.00
2018-01-08T11:48:16.754Z,7808.00
2018-01-08T11:49:16.674Z,6292.00
2018-01-08T11:50:16.592Z,6512.00
2018-01-08T11:51:16.513Z,6464.00
2018-01-08T11:52:16.433Z,21056.00
2018-01-08T11:53:16.353Z,18016.00
2018-01-08T11:54:16.274Z,6492.00
2018-01-08T11:55:16.193Z,6116.00
2018-01-08T11:56:16.114Z,19552.00
2018-01-08T11:57:16.036Z,10612.00
2018-01-08T11:58:15.954Z,17920.00
2018-01-08T11:59:15.874Z,10976.00
2018-01-08T12:00:15.797Z,8064.00
2018-01-08T12:01:15.717Z,5040.00
2018-01-08T12:02:15.638Z,7200.00
2018-01-08T12:03:15.559Z,9660.00
2018-01-08T12:04:15.482Z,5168.00
2018-01-08T12:05:15.402Z,7100.00
2018-01-08T12:06:15.322Z,13648.00
2018-01-08T12:07:15.247Z,6520.00
2018-01-08T12:08:15.165Z,5992.00
2018-01-08T12:09:15.088Z,6196.00
2018-01-08T12:10:15.010Z,4392.00
2018-01-08T12:11:14.928Z,8692.00
2018-01-08T12:12:14.851Z,14120.00
2018-01-08T12:13:14.776Z,4792.00
2018-01-08T12:14:14.691Z,3528.00
2018-01-08T12:15:14.613Z,4136.00
2018-01-08T12:16:14.537Z,2256.00
2018-01-08T12:17:14.456Z,1796.00
2018-01-08T12:18:14.421Z,1488.00
2018-01-08T12:19:14.299Z,1364.00
2018-01-08T12:20:14.219Z,1280.00
2018-01-08T12:21:14.143Z,1536.00
2018-01-08T12:22:14.058Z,1372.00
2018-01-08T12:23:13.980Z,1452.00
2018-01-08T12:24:13.901Z,1664.00
2018-01-08T12:25:13.820Z,1448.00
2018-01-08T12:26:13.741Z,1188.00
2018-01-08T12:27:13.663Z,1140.00
2018-01-08T12:28:13.581Z,1084.00
2018-01-08T12:29:13.501Z,1104.00
2018-01-08T12:30:13.430Z,1240.00
2018-01-08T12:31:13.343Z,1384.00
2018-01-08T12:32:13.262Z,1484.00
2018-01-08T12:33:13.183Z,1728.00
2018-01-08T12:34:13.099Z,1656.00
2018-01-08T12:35:13.023Z,2100.00
2018-01-08T12:36:12.939Z,1856.00
2018-01-08T12:37:12.859Z,1764.00
2018-01-08T12:38:12.778Z,2516.00
2018-01-08T12:39:12.699Z,3056.00
2018-01-08T12:40:12.617Z,3544.00
2018-01-08T12:41:12.537Z,4580.00
2018-01-08T12:42:12.455Z,4708.00
2018-01-08T12:43:12.376Z,4652.00
2018-01-08T12:44:12.296Z,4532.00
2018-01-08T12:45:12.214Z,4528.00
2018-01-08T12:46:12.133Z,4572.00
2018-01-08T12:47:12.054Z,4280.00
2018-01-08T12:48:11.973Z,4528.00
2018-01-08T12:49:11.904Z,4760.00
2018-01-08T12:50:11.810Z,3960.00
2018-01-08T12:51:11.730Z,3412.00
2018-01-08T12:52:11.649Z,2972.00